createdAt,value
2018-06-08T00:01:19.504Z,19.44
2018-06-08T00:02:19.472Z,19.41
2018-06-08T00:04:12.508Z,19.47
2018-06-08T00:05:12.447Z,19.41
2018-06-08T00:07:05.298Z,19.39
2018-06-08T00:08:05.224Z,19.47
2018-06-08T00:09:58.201Z,19.40
2018-06-08T00:10:58.166Z,19.45
2018-06-08T00:12:51.361Z,19.47
2018-06-08T00:13:51.266Z,19.39
2018-06-08T00:15:44.237Z,19.33
2018-06-08T00:16:44.197Z,19.44
2018-06-08T00:18:37.259Z,19.34
2018-06-08T00:19:37.211Z,19.29
2018-06-08T00:21:30.207Z,19.45
2018-06-08T00:22:30.158Z,19.30
2018-06-08T00:24:23.153Z,19.37
2018-06-08T00:25:23.102Z,19.29
2018-06-08T00:27:17.069Z,19.34
2018-06-08T00:28:17.038Z,19.30
2018-06-08T00:30:10.047Z,19.31
2018-06-08T00:31:09.985Z,19.40
2018-06-08T00:33:02.970Z,19.30
2018-06-08T00:34:02.938Z,19.41
2018-06-08T00:35:55.759Z,19.39
2018-06-08T00:36:55.720Z,19.44
2018-06-08T00:38:48.887Z,19.40
2018-06-08T00:39:48.807Z,19.40
2018-06-08T00:41:41.787Z,19.40
2018-06-08T00:42:41.759Z,19.47
2018-06-08T00:44:34.748Z,19.37
2018-06-08T00:45:34.719Z,19.37
2018-06-08T00:47:27.748Z,19.37
2018-06-08T00:48:27.712Z,19.37
2018-06-08T00:50:20.718Z,19.36
2018-06-08T00:51:20.670Z,19.44
2018-06-08T00:53:13.648Z,19.54
2018-06-08T00:54:13.594Z,19.40
2018-06-08T00:56:06.448Z,19.54
2018-06-08T00:57:06.378Z,19.47
2018-06-08T00:58:59.359Z,19.54
2018-06-08T00:59:59.335Z,19.52
2018-06-08T01:01:52.165Z,19.51
2018-06-08T01:02:52.124Z,19.56
2018-06-08T01:04:45.138Z,19.55
2018-06-08T01:05:45.079Z,19.47
2018-06-08T01:07:38.060Z,19.55
2018-06-08T01:08:38.041Z,19.55
2018-06-08T01:10:31.048Z,19.54
2018-06-08T01:11:30.992Z,19.56
2018-06-08T01:13:24.100Z,19.55
2018-06-08T01:14:24.074Z,19.54
2018-06-08T01:16:16.923Z,19.58
2018-06-08T01:17:16.858Z,19.52
2018-06-08T01:19:09.826Z,19.58
2018-06-08T01:20:09.791Z,19.59
2018-06-08T01:22:02.779Z,19.58
2018-06-08T01:23:02.740Z,19.55
2018-06-08T01:24:55.801Z,19.58
2018-06-08T01:25:55.756Z,19.56
2018-06-08T01:27:48.759Z,19.52
2018-06-08T01:28:48.700Z,19.48
2018-06-08T01:30:41.671Z,19.41
2018-06-08T01:31:41.635Z,19.44
2018-06-08T01:33:34.482Z,19.48
2018-06-08T01:34:34.417Z,19.44
2018-06-08T01:36:27.405Z,19.56
2018-06-08T01:37:27.370Z,19.54
2018-06-08T01:39:20.399Z,19.54
2018-06-08T01:40:20.356Z,19.51
2018-06-08T01:42:13.522Z,19.56
2018-06-08T01:43:13.465Z,19.58
2018-06-08T01:45:06.459Z,19.47
2018-06-08T01:46:06.406Z,19.47
2018-06-08T01:47:59.254Z,19.34
2018-06-08T01:48:59.200Z,19.33
2018-06-08T01:50:52.370Z,19.34
2018-06-08T01:51:52.299Z,19.24
2018-06-08T01:53:45.276Z,19.31
2018-06-08T01:54:45.226Z,19.34
2018-06-08T01:56:38.065Z,19.36
2018-06-08T01:57:38.060Z,19.34
2018-06-08T01:59:31.217Z,19.41
2018-06-08T02:00:31.142Z,19.34
2018-06-08T02:02:24.156Z,19.44
2018-06-08T02:03:24.086Z,19.44
2018-06-08T02:05:17.047Z,19.49
2018-06-08T02:06:17.022Z,19.44
2018-06-08T02:08:10.125Z,19.49
2018-06-08T02:09:10.052Z,19.49
2018-06-08T02:11:03.043Z,19.47
2018-06-08T02:12:03.001Z,19.48
2018-06-08T02:13:56.105Z,19.47
2018-06-08T02:14:56.062Z,19.36
2018-06-08T02:16:49.064Z,19.36
2018-06-08T02:17:49.007Z,19.37
2018-06-08T02:19:42.008Z,19.33
2018-06-08T02:20:41.978Z,19.30
2018-06-08T02:22:35.126Z,19.40
2018-06-08T02:23:35.050Z,19.44
2018-06-08T02:25:28.046Z,19.45
2018-06-08T02:26:28.003Z,19.45
2018-06-08T02:28:20.966Z,19.36
2018-06-08T02:29:20.923Z,19.41
2018-06-08T02:31:13.838Z,19.37
2018-06-08T02:32:13.777Z,19.33
2018-06-08T02:34:06.764Z,19.45
2018-06-08T02:35:06.715Z,19.33
2018-06-08T02:36:59.713Z,19.34
2018-06-08T02:37:59.667Z,19.34
2018-06-08T02:39:52.829Z,19.33
2018-06-08T02:40:52.744Z,19.33
2018-06-08T02:42:45.755Z,19.39
2018-06-08T02:43:45.697Z,19.45
2018-06-08T02:45:38.575Z,19.47
2018-06-08T02:46:38.528Z,19.49
2018-06-08T02:48:31.679Z,19.45
2018-06-08T02:49:31.624Z,19.49
2018-06-08T02:51:24.634Z,19.51
2018-06-08T02:52:24.574Z,19.40
2018-06-08T02:54:17.415Z,19.44
2018-06-08T02:55:17.354Z,19.55
2018-06-08T02:57:10.606Z,19.54
2018-06-08T02:58:10.547Z,19.44
2018-06-08T03:00:03.555Z,19.44
2018-06-08T03:01:03.616Z,19.41
2018-06-08T03:02:56.645Z,19.45
2018-06-08T03:03:56.596Z,19.44
2018-06-08T03:05:49.570Z,19.44
2018-06-08T03:06:49.526Z,19.47
2018-06-08T03:08:42.376Z,19.48
2018-06-08T03:09:42.327Z,19.45
2018-06-08T03:11:35.332Z,19.51
2018-06-08T03:12:35.280Z,19.51
2018-06-08T03:14:28.101Z,19.36
2018-06-08T03:15:28.075Z,19.49
2018-06-08T03:17:21.075Z,19.52
2018-06-08T03:18:21.019Z,19.55
2018-06-08T03:20:13.990Z,19.45
2018-06-08T03:21:13.964Z,19.39
2018-06-08T03:23:07.155Z,19.45
2018-06-08T03:24:07.096Z,19.37
2018-06-08T03:26:00.071Z,19.39
2018-06-08T03:27:00.047Z,19.39
2018-06-08T03:28:53.041Z,19.37
2018-06-08T03:29:52.988Z,19.33
2018-06-08T03:31:45.829Z,19.30
2018-06-08T03:32:45.792Z,19.33
2018-06-08T03:34:38.769Z,19.29
2018-06-08T03:35:38.725Z,19.29
2018-06-08T03:37:31.730Z,19.30
2018-06-08T03:38:31.686Z,19.34
2018-06-08T03:40:24.889Z,19.26
2018-06-08T03:41:24.813Z,19.27
2018-06-08T03:43:17.760Z,19.27
2018-06-08T03:44:17.725Z,19.24
2018-06-08T03:46:10.561Z,19.33
2018-06-08T03:47:10.522Z,19.44
2018-06-08T03:49:03.755Z,19.30
2018-06-08T03:50:03.619Z,19.36
2018-06-08T03:51:56.602Z,19.34
2018-06-08T03:52:56.571Z,19.34
2018-06-08T03:54:49.401Z,19.45
2018-06-08T03:55:49.367Z,19.44
2018-06-08T03:57:42.512Z,19.44
2018-06-08T03:58:42.454Z,19.44
2018-06-08T04:00:35.471Z,19.37
2018-06-08T04:01:35.398Z,19.45
2018-06-08T04:03:28.394Z,19.40
2018-06-08T04:04:28.361Z,19.41
2018-06-08T04:06:21.255Z,19.45
2018-06-08T04:07:21.196Z,19.48
2018-06-08T04:09:14.237Z,19.44
2018-06-08T04:10:14.182Z,19.48
2018-06-08T04:12:07.196Z,19.44
2018-06-08T04:13:07.138Z,19.40
2018-06-08T04:15:00.077Z,19.51
2018-06-08T04:16:00.041Z,19.49
2018-06-08T04:17:53.047Z,19.48
2018-06-08T04:18:53.003Z,19.55
2018-06-08T04:20:46.004Z,19.49
2018-06-08T04:21:45.983Z,19.55
2018-06-08T04:23:39.133Z,19.55
2018-06-08T04:24:39.096Z,19.45
2018-06-08T04:26:31.928Z,19.56
2018-06-08T04:27:31.888Z,19.45
2018-06-08T04:29:24.877Z,19.54
2018-06-08T04:30:24.842Z,19.49
2018-06-08T04:32:18.014Z,19.45
2018-06-08T04:33:17.940Z,19.41
2018-06-08T04:35:10.965Z,19.47
2018-06-08T04:36:10.956Z,19.47
2018-06-08T04:38:04.011Z,19.36
2018-06-08T04:39:03.963Z,19.49
2018-06-08T04:40:56.975Z,19.58
2018-06-08T04:41:56.936Z,19.59
2018-06-08T04:43:49.958Z,19.52
2018-06-08T04:44:49.915Z,19.51
2018-06-08T04:46:43.108Z,19.63
2018-06-08T04:47:43.044Z,19.67
2018-06-08T04:49:36.024Z,19.66
2018-06-08T04:50:35.992Z,19.63
2018-06-08T04:52:28.967Z,19.74
2018-06-08T04:53:28.920Z,19.84
2018-06-08T04:55:21.883Z,19.85
2018-06-08T04:56:21.709Z,19.86
2018-06-08T04:58:14.719Z,19.88
2018-06-08T04:59:14.655Z,19.95
2018-06-08T05:01:07.623Z,20.11
2018-06-08T05:02:07.613Z,20.09
2018-06-08T05:04:00.773Z,20.09
2018-06-08T05:05:00.685Z,20.07
2018-06-08T05:06:53.663Z,20.13
2018-06-08T05:07:53.631Z,20.10
2018-06-08T05:09:46.746Z,20.09
2018-06-08T05:10:46.576Z,20.10
2018-06-08T05:12:39.395Z,20.22
2018-06-08T05:13:39.353Z,20.24
2018-06-08T05:15:32.325Z,20.31
2018-06-08T05:16:32.309Z,20.29
2018-06-08T05:18:25.309Z,20.40
2018-06-08T05:19:25.253Z,20.32
2018-06-08T05:21:18.425Z,20.41
2018-06-08T05:22:18.364Z,20.41
2018-06-08T05:24:11.408Z,20.52
2018-06-08T05:25:11.339Z,20.51
2018-06-08T05:27:04.324Z,20.50
2018-06-08T05:28:04.309Z,20.51
2018-06-08T05:29:57.171Z,20.56
2018-06-08T05:30:57.113Z,20.66
2018-06-08T05:32:50.110Z,20.58
2018-06-08T05:33:50.050Z,20.63
2018-06-08T05:35:42.885Z,20.62
2018-06-08T05:36:42.846Z,20.69
2018-06-08T05:38:35.835Z,20.62
2018-06-08T05:39:35.806Z,20.62
2018-06-08T05:41:28.636Z,20.59
2018-06-08T05:42:28.617Z,20.63
2018-06-08T05:44:21.587Z,20.66
2018-06-08T05:45:21.534Z,20.69
2018-06-08T05:47:14.512Z,20.62
2018-06-08T05:48:14.520Z,20.60
2018-06-08T05:50:07.716Z,20.70
2018-06-08T05:51:07.560Z,20.65
2018-06-08T05:53:00.552Z,20.69
2018-06-08T05:54:00.508Z,20.77
2018-06-08T05:55:53.511Z,20.72
2018-06-08T05:56:53.470Z,20.77
2018-06-08T05:58:46.532Z,20.63
2018-06-08T05:59:46.497Z,20.60
2018-06-08T06:01:39.500Z,20.67
2018-06-08T06:02:39.452Z,20.74
2018-06-08T06:04:32.430Z,20.70
2018-06-08T06:05:32.400Z,20.77
2018-06-08T06:07:25.401Z,20.87
2018-06-08T06:08:25.359Z,20.90
2018-06-08T06:10:18.407Z,20.92
2018-06-08T06:11:18.437Z,20.90
2018-06-08T06:13:11.668Z,20.92
2018-06-08T06:14:11.553Z,21.05
2018-06-08T06:16:04.391Z,21.02
2018-06-08T06:17:04.357Z,21.03
2018-06-08T06:18:57.367Z,21.03
2018-06-08T06:19:57.343Z,21.02
2018-06-08T06:21:50.152Z,20.97
2018-06-08T06:22:50.103Z,21.03
2018-06-08T06:24:43.147Z,21.00
2018-06-08T06:25:43.109Z,21.06
2018-06-08T06:27:36.156Z,21.03
2018-06-08T06:28:36.111Z,21.05
2018-06-08T06:30:29.338Z,21.02
2018-06-08T06:31:29.162Z,21.00
2018-06-08T06:33:22.148Z,20.97
2018-06-08T06:34:22.103Z,21.05
2018-06-08T06:36:15.098Z,21.12
2018-06-08T06:37:15.074Z,21.02
2018-06-08T06:39:07.920Z,21.05
2018-06-08T06:40:07.867Z,20.90
2018-06-08T06:42:00.877Z,21.03
2018-06-08T06:43:00.848Z,21.02
2018-06-08T06:44:53.939Z,20.99
2018-06-08T06:45:53.828Z,21.02
2018-06-08T06:47:47.089Z,21.02
2018-06-08T06:48:46.937Z,21.02
2018-06-08T06:50:39.968Z,20.90
2018-06-08T06:51:39.938Z,21.00
2018-06-08T06:53:32.817Z,20.96
2018-06-08T06:54:32.765Z,20.92
2018-06-08T06:56:25.592Z,20.90
2018-06-08T06:57:25.569Z,20.90
2018-06-08T06:59:18.569Z,20.92
2018-06-08T07:00:18.512Z,21.03
2018-06-08T07:02:11.484Z,21.06
2018-06-08T07:03:11.464Z,21.02
2018-06-08T07:05:04.702Z,21.15
2018-06-08T07:06:04.627Z,21.07
2018-06-08T07:07:57.617Z,21.17
2018-06-08T07:08:57.544Z,21.24
2018-06-08T07:10:50.519Z,21.18
2018-06-08T07:11:50.494Z,21.14
2018-06-08T07:13:43.378Z,21.12
2018-06-08T07:14:43.331Z,21.18
2018-06-08T07:16:36.230Z,21.22
2018-06-08T07:17:36.101Z,21.09
2018-06-08T07:19:29.104Z,21.17
2018-06-08T07:20:29.049Z,21.21
2018-06-08T07:22:22.042Z,21.27
2018-06-08T07:23:22.004Z,21.17
2018-06-08T07:25:14.839Z,21.27
2018-06-08T07:26:14.798Z,21.21
2018-06-08T07:28:07.759Z,21.30
2018-06-08T07:29:07.739Z,21.24
2018-06-08T07:31:00.736Z,21.18
2018-06-08T07:32:00.730Z,21.22
2018-06-08T07:33:53.913Z,21.17
2018-06-08T07:34:53.789Z,21.20
2018-06-08T07:36:46.760Z,21.25
2018-06-08T07:37:46.754Z,21.07
2018-06-08T07:39:39.732Z,21.15
2018-06-08T07:40:39.684Z,21.20
2018-06-08T07:42:32.504Z,21.21
2018-06-08T07:43:32.472Z,21.17
2018-06-08T07:45:25.516Z,21.24
2018-06-08T07:46:25.466Z,21.20
2018-06-08T07:48:18.447Z,21.20
2018-06-08T07:49:18.424Z,21.14
2018-06-08T07:51:11.576Z,21.17
2018-06-08T07:52:11.504Z,21.24
2018-06-08T07:54:04.496Z,21.33
2018-06-08T07:55:04.440Z,21.27
2018-06-08T07:56:57.456Z,21.30
2018-06-08T07:57:57.401Z,21.37
2018-06-08T07:59:50.250Z,21.35
2018-06-08T08:00:50.234Z,21.40
2018-06-08T08:02:43.247Z,21.51
2018-06-08T08:03:43.187Z,21.52
2018-06-08T08:05:36.220Z,21.40
2018-06-08T08:06:35.985Z,21.33
2018-06-08T08:08:28.976Z,21.42
2018-06-08T08:09:28.938Z,21.40
2018-06-08T08:11:21.793Z,21.37
2018-06-08T08:12:21.770Z,21.46
2018-06-08T08:14:14.658Z,21.46
2018-06-08T08:15:14.566Z,21.35
2018-06-08T08:17:07.544Z,21.50
2018-06-08T08:18:07.517Z,21.58
2018-06-08T08:20:00.508Z,21.66
2018-06-08T08:21:00.470Z,21.72
2018-06-08T08:22:53.517Z,21.66
2018-06-08T08:23:53.463Z,21.72
2018-06-08T08:25:46.483Z,21.80
2018-06-08T08:26:46.417Z,21.73
2018-06-08T08:28:39.457Z,21.73
2018-06-08T08:29:39.413Z,21.75
2018-06-08T08:31:32.407Z,22.00
2018-06-08T08:32:32.348Z,21.96
2018-06-08T08:34:25.321Z,22.02
2018-06-08T08:35:25.318Z,22.22
2018-06-08T08:37:18.393Z,22.17
2018-06-08T08:38:18.331Z,22.29
2018-06-08T08:40:11.302Z,22.44
2018-06-08T08:41:11.272Z,22.45
2018-06-08T08:43:04.273Z,22.28
2018-06-08T08:44:04.247Z,22.17
2018-06-08T08:45:57.342Z,22.28
2018-06-08T08:46:57.298Z,22.33
2018-06-08T08:48:50.278Z,22.47
2018-06-08T08:49:50.249Z,22.39
2018-06-08T08:51:43.225Z,22.35
2018-06-08T08:52:43.184Z,22.36
2018-06-08T08:54:36.269Z,22.39
2018-06-08T08:55:36.237Z,22.48
2018-06-08T08:57:29.050Z,22.53
2018-06-08T08:58:29.017Z,22.44
2018-06-08T09:00:22.012Z,22.51
2018-06-08T09:01:21.980Z,22.59
2018-06-08T09:03:15.077Z,22.44
2018-06-08T09:04:15.085Z,22.51
2018-06-08T09:06:08.058Z,22.43
2018-06-08T09:07:08.009Z,22.41
2018-06-08T09:09:01.395Z,22.50
2018-06-08T09:10:01.195Z,22.51
2018-06-08T09:11:54.282Z,22.51
2018-06-08T09:12:54.242Z,22.55
2018-06-08T09:14:47.278Z,22.55
2018-06-08T09:15:47.250Z,22.51
2018-06-08T09:17:40.169Z,22.48
2018-06-08T09:18:40.036Z,22.39
2018-06-08T09:20:33.058Z,22.44
2018-06-08T09:21:33.012Z,22.33
2018-06-08T09:23:25.989Z,21.98
2018-06-08T09:24:25.964Z,21.85
2018-06-08T09:26:18.886Z,21.67
2018-06-08T09:27:18.860Z,21.60
2018-06-08T09:29:11.835Z,21.45
2018-06-08T09:30:11.800Z,21.43
2018-06-08T09:32:04.786Z,21.18
2018-06-08T09:33:04.758Z,21.24
2018-06-08T09:34:57.885Z,21.33
2018-06-08T09:35:57.826Z,21.36
2018-06-08T09:37:50.810Z,21.33
2018-06-08T09:38:50.779Z,21.24
2018-06-08T09:40:43.755Z,21.21
2018-06-08T09:41:43.719Z,21.18
2018-06-08T09:43:36.684Z,21.00
2018-06-08T09:44:36.576Z,21.03
2018-06-08T09:46:29.444Z,20.88
2018-06-08T09:47:29.374Z,20.93
2018-06-08T09:49:22.370Z,20.67
2018-06-08T09:50:22.318Z,20.56
2018-06-08T09:52:15.325Z,20.50
2018-06-08T09:53:15.264Z,20.48
2018-06-08T09:55:08.262Z,20.40
2018-06-08T09:56:08.231Z,20.29
2018-06-08T09:58:01.236Z,20.29
2018-06-08T09:59:01.166Z,20.16
2018-06-08T10:00:54.168Z,19.89
2018-06-08T10:01:54.136Z,19.79
2018-06-08T10:03:46.940Z,19.71
2018-06-08T10:04:46.895Z,19.66
2018-06-08T10:06:39.893Z,19.59
2018-06-08T10:07:39.831Z,19.64
2018-06-08T10:09:32.798Z,19.64
2018-06-08T10:10:32.762Z,19.63
2018-06-08T10:12:25.962Z,19.70
2018-06-08T10:13:26.604Z,19.63
2018-06-08T10:15:18.844Z,19.66
2018-06-08T10:16:18.836Z,19.63
2018-06-08T10:18:11.822Z,19.69
2018-06-08T10:19:11.745Z,19.66
2018-06-08T10:21:04.642Z,19.73
2018-06-08T10:22:04.658Z,19.77
2018-06-08T10:23:57.621Z,19.76
2018-06-08T10:24:57.557Z,19.73
2018-06-08T10:26:50.528Z,19.94
2018-06-08T10:27:50.497Z,19.86
2018-06-08T10:29:43.681Z,19.71
2018-06-08T10:30:43.573Z,19.77
2018-06-08T10:32:36.558Z,19.67
2018-06-08T10:33:36.527Z,19.63
2018-06-08T10:35:29.522Z,19.71
2018-06-08T10:36:29.448Z,19.69
2018-06-08T10:38:22.276Z,19.67
2018-06-08T10:39:22.354Z,19.62
2018-06-08T10:41:15.231Z,19.79
2018-06-08T10:42:15.182Z,19.79
2018-06-08T10:44:08.099Z,19.85
2018-06-08T10:45:07.986Z,19.86
2018-06-08T10:47:00.801Z,19.91
2018-06-08T10:48:00.771Z,20.03
2018-06-08T10:49:53.998Z,20.13
2018-06-08T10:50:53.872Z,20.11
2018-06-08T10:52:46.706Z,20.21
2018-06-08T10:53:46.678Z,20.34
2018-06-08T10:55:39.510Z,20.28
2018-06-08T10:56:39.466Z,20.39
2018-06-08T10:58:32.288Z,20.43
2018-06-08T10:59:32.241Z,20.41
2018-06-08T11:01:25.516Z,20.56
2018-06-08T11:02:25.403Z,20.65
2018-06-08T11:04:18.438Z,20.74
2018-06-08T11:05:18.348Z,20.74
2018-06-08T11:07:11.333Z,20.90
2018-06-08T11:08:11.303Z,20.84
2018-06-08T11:10:04.349Z,20.99
2018-06-08T11:11:04.305Z,21.02
2018-06-08T11:12:57.298Z,20.92
2018-06-08T11:13:57.252Z,20.93
2018-06-08T11:15:50.242Z,20.96
2018-06-08T11:16:50.193Z,20.92
2018-06-08T11:18:43.251Z,20.80
2018-06-08T11:19:43.211Z,20.84
2018-06-08T11:21:36.250Z,21.02
2018-06-08T11:22:36.169Z,21.03
2018-06-08T11:24:29.322Z,20.99
2018-06-08T11:25:29.308Z,21.03
2018-06-08T11:27:22.308Z,21.05
2018-06-08T11:28:22.249Z,20.97
2018-06-08T11:30:15.236Z,21.12
2018-06-08T11:31:15.193Z,21.09
2018-06-08T11:33:08.048Z,21.35
2018-06-08T11:34:08.004Z,21.39
2018-06-08T11:36:01.974Z,21.54
2018-06-08T11:37:01.959Z,21.32
2018-06-08T11:38:54.913Z,21.45
2018-06-08T11:39:54.873Z,21.42
2018-06-08T11:41:47.706Z,21.55
2018-06-08T11:42:47.675Z,21.45
2018-06-08T11:44:40.498Z,21.73
2018-06-08T11:45:40.461Z,21.72
2018-06-08T11:47:33.454Z,21.73
2018-06-08T11:48:33.401Z,21.73
2018-06-08T11:50:26.395Z,21.60
2018-06-08T11:51:26.446Z,21.61
2018-06-08T11:53:19.645Z,21.55
2018-06-08T11:54:19.426Z,21.45
2018-06-08T11:56:12.883Z,21.51
2018-06-08T11:57:12.385Z,21.46
2018-06-08T11:59:05.344Z,21.48
2018-06-08T12:00:05.319Z,21.60
2018-06-08T12:01:58.490Z,21.64
2018-06-08T12:02:58.400Z,21.66
2018-06-08T12:04:51.467Z,21.69
2018-06-08T12:05:51.345Z,21.75
2018-06-08T12:07:44.311Z,21.73
2018-06-08T12:08:44.302Z,21.72
2018-06-08T12:10:37.346Z,21.91
2018-06-08T12:11:37.291Z,21.80
2018-06-08T12:13:30.278Z,21.98
2018-06-08T12:14:30.284Z,21.91
2018-06-08T12:16:23.299Z,21.73
2018-06-08T12:17:23.270Z,21.83
2018-06-08T12:19:16.238Z,21.70
2018-06-08T12:20:16.235Z,21.67
2018-06-08T12:22:09.659Z,21.75
2018-06-08T12:23:09.162Z,21.70
2018-06-08T12:25:02.197Z,22.08
2018-06-08T12:26:02.151Z,22.25
2018-06-08T12:27:55.157Z,22.23
2018-06-08T12:28:55.109Z,22.26
2018-06-08T12:30:48.186Z,22.53
2018-06-08T12:31:48.067Z,22.53
2018-06-08T12:33:41.245Z,22.62
2018-06-08T12:34:41.161Z,22.66
2018-06-08T12:36:34.179Z,22.70
2018-06-08T12:37:34.134Z,22.76
2018-06-08T12:39:27.110Z,22.90
2018-06-08T12:40:27.070Z,23.15
2018-06-08T12:42:19.923Z,23.46
2018-06-08T12:43:19.871Z,23.76
2018-06-08T12:45:12.886Z,23.98
2018-06-08T12:46:12.843Z,24.24
2018-06-08T12:48:05.849Z,24.54
2018-06-08T12:49:05.801Z,24.43
2018-06-08T12:50:59.241Z,24.69
2018-06-08T12:51:58.904Z,24.61
2018-06-08T12:53:51.877Z,24.60
2018-06-08T12:54:51.823Z,24.69
2018-06-08T12:56:44.827Z,24.84
2018-06-08T12:57:44.783Z,24.58
2018-06-08T12:59:37.614Z,24.50
2018-06-08T13:00:37.607Z,24.61
2018-06-08T13:02:30.596Z,24.66
2018-06-08T13:03:30.564Z,24.40
2018-06-08T13:05:23.537Z,24.54
2018-06-08T13:06:23.513Z,24.53
2018-06-08T13:08:16.713Z,24.60
2018-06-08T13:09:16.671Z,24.63
2018-06-08T13:11:09.672Z,24.53
2018-06-08T13:12:09.637Z,24.58
2018-06-08T13:14:02.477Z,24.61
2018-06-08T13:15:02.434Z,24.63
2018-06-08T13:16:55.258Z,24.69
2018-06-08T13:17:55.232Z,24.47
2018-06-08T13:19:48.259Z,24.58
2018-06-08T13:20:48.217Z,24.60
2018-06-08T13:22:41.263Z,24.85
2018-06-08T13:23:41.218Z,24.88
2018-06-08T13:25:34.013Z,25.08
2018-06-08T13:26:34.008Z,24.98
2018-06-08T13:28:26.846Z,25.28
2018-06-08T13:29:26.794Z,25.23
2018-06-08T13:31:19.778Z,25.48
2018-06-08T13:32:19.751Z,25.55
2018-06-08T13:34:12.749Z,25.72
2018-06-08T13:35:12.710Z,25.72
2018-06-08T13:37:05.920Z,25.58
2018-06-08T13:38:05.894Z,25.51
2018-06-08T13:39:58.888Z,24.93
2018-06-08T13:40:58.842Z,24.70
2018-06-08T13:42:52.082Z,24.45
2018-06-08T13:43:52.052Z,24.57
2018-06-08T13:45:45.055Z,24.55
2018-06-08T13:46:45.242Z,24.58
2018-06-08T13:48:38.004Z,24.45
2018-06-08T13:49:37.963Z,24.54
2018-06-08T13:51:30.994Z,24.47
2018-06-08T13:52:30.996Z,24.45
2018-06-08T13:54:23.964Z,24.40
2018-06-08T13:55:23.925Z,24.14
2018-06-08T13:57:17.162Z,23.84
2018-06-08T13:58:17.032Z,24.01
2018-06-08T14:00:10.024Z,23.77
2018-06-08T14:01:09.967Z,23.55
2018-06-08T14:03:02.982Z,23.80
2018-06-08T14:04:02.918Z,23.86
2018-06-08T14:05:56.011Z,23.78
2018-06-08T14:06:55.732Z,23.87
2018-06-08T14:08:48.714Z,23.91
2018-06-08T14:09:48.696Z,23.86
2018-06-08T14:11:41.670Z,23.73
2018-06-08T14:12:41.643Z,23.77
2018-06-08T14:14:34.482Z,23.84
2018-06-08T14:15:34.434Z,23.95
2018-06-08T14:17:27.275Z,24.02
2018-06-08T14:18:27.248Z,23.98
2018-06-08T14:20:20.236Z,24.01
2018-06-08T14:21:20.215Z,24.10
2018-06-08T14:23:13.245Z,24.17
2018-06-08T14:24:13.158Z,24.32
2018-06-08T14:26:06.336Z,24.55
2018-06-08T14:27:06.272Z,24.51
2018-06-08T14:28:59.252Z,24.42
2018-06-08T14:29:59.224Z,24.45
2018-06-08T14:32:01.563Z,24.33
2018-06-08T14:32:52.043Z,24.38
2018-06-08T14:34:45.019Z,24.53
2018-06-08T14:35:44.994Z,24.53
2018-06-08T14:37:37.834Z,24.60
2018-06-08T14:38:37.799Z,24.63
2018-06-08T14:40:30.785Z,24.77
2018-06-08T14:41:30.744Z,24.53
2018-06-08T14:43:23.608Z,24.21
2018-06-08T14:44:23.564Z,23.98
2018-06-08T14:46:16.379Z,24.08
2018-06-08T14:47:16.363Z,23.95
2018-06-08T14:49:09.387Z,24.08
2018-06-08T14:50:09.331Z,24.06
2018-06-08T14:52:02.306Z,24.17
2018-06-08T14:53:02.284Z,24.05
2018-06-08T14:54:55.299Z,24.03
2018-06-08T14:55:55.231Z,23.71
2018-06-08T14:57:48.056Z,23.77
2018-06-08T14:58:48.025Z,23.74
2018-06-08T15:00:41.030Z,23.62
2018-06-08T15:01:40.990Z,23.46
2018-06-08T15:03:33.946Z,23.36
2018-06-08T15:04:33.886Z,23.47
2018-06-08T15:06:26.863Z,23.55
2018-06-08T15:07:26.892Z,23.50
2018-06-08T15:09:20.322Z,23.69
2018-06-08T15:10:19.812Z,23.62
2018-06-08T15:12:12.917Z,23.87
2018-06-08T15:13:12.896Z,24.02
2018-06-08T15:15:05.754Z,24.16
2018-06-08T15:16:05.702Z,24.17
2018-06-08T15:17:58.673Z,24.23
2018-06-08T15:18:58.655Z,23.91
2018-06-08T15:20:51.817Z,23.96
2018-06-08T15:21:51.742Z,23.99
2018-06-08T15:23:44.752Z,24.21
2018-06-08T15:24:44.703Z,24.35
2018-06-08T15:26:37.527Z,24.58
2018-06-08T15:27:37.500Z,24.29
2018-06-08T15:29:30.692Z,24.16
2018-06-08T15:30:30.593Z,24.21
2018-06-08T15:32:23.436Z,24.02
2018-06-08T15:33:23.381Z,23.88
2018-06-08T15:35:16.402Z,23.93
2018-06-08T15:36:16.333Z,24.11
2018-06-08T15:38:09.161Z,24.06
2018-06-08T15:39:09.141Z,24.11
2018-06-08T15:41:02.012Z,24.24
2018-06-08T15:42:01.943Z,24.24
2018-06-08T15:43:54.983Z,24.36
2018-06-08T15:44:54.943Z,24.38
2018-06-08T15:46:47.967Z,24.55
2018-06-08T15:47:47.932Z,24.45
2018-06-08T15:49:40.763Z,24.50
2018-06-08T15:50:40.709Z,24.60
2018-06-08T15:52:33.691Z,24.80
2018-06-08T15:53:33.686Z,24.99
2018-06-08T15:55:26.667Z,25.46
2018-06-08T15:56:26.624Z,25.53
2018-06-08T15:58:19.778Z,25.80
2018-06-08T15:59:19.738Z,25.96
2018-06-08T16:01:12.642Z,26.33
2018-06-08T16:02:12.592Z,26.47
2018-06-08T16:04:05.584Z,26.63
2018-06-08T16:05:05.543Z,26.65
2018-06-08T16:06:58.744Z,26.52
2018-06-08T16:07:58.662Z,26.74
2018-06-08T16:09:51.646Z,26.55
2018-06-08T16:10:51.603Z,26.52
2018-06-08T16:12:44.605Z,26.36
2018-06-08T16:13:44.553Z,26.28
2018-06-08T16:15:37.398Z,26.21
2018-06-08T16:16:37.376Z,26.28
2018-06-08T16:18:30.385Z,26.02
2018-06-08T16:19:30.344Z,25.85
2018-06-08T16:21:23.314Z,25.99
2018-06-08T16:22:23.338Z,26.22
2018-06-08T16:24:16.433Z,26.19
2018-06-08T16:25:16.296Z,26.31
2018-06-08T16:27:09.283Z,26.38
2018-06-08T16:28:09.257Z,26.38
2018-06-08T16:30:02.296Z,26.23
2018-06-08T16:31:02.195Z,26.36
2018-06-08T16:32:55.073Z,26.29
2018-06-08T16:33:55.010Z,26.37
2018-06-08T16:35:48.014Z,26.26
2018-06-08T16:36:47.981Z,26.06
2018-06-08T16:38:40.824Z,26.19
2018-06-08T16:39:40.785Z,26.07
2018-06-08T16:41:33.604Z,25.85
2018-06-08T16:42:33.584Z,25.62
2018-06-08T16:44:26.765Z,25.83
2018-06-08T16:45:26.689Z,25.69
2018-06-08T16:47:19.505Z,25.66
2018-06-08T16:48:19.488Z,25.53
2018-06-08T16:50:12.475Z,25.29
2018-06-08T16:51:12.430Z,25.26
2018-06-08T16:53:05.786Z,25.28
2018-06-08T16:54:05.745Z,25.28
2018-06-08T16:55:58.749Z,25.04
2018-06-08T16:56:58.699Z,24.85
2018-06-08T16:58:51.849Z,24.98
2018-06-08T16:59:51.845Z,24.99
2018-06-08T17:01:44.828Z,24.66
2018-06-08T17:02:44.759Z,24.74
2018-06-08T17:04:37.795Z,24.85
2018-06-08T17:05:37.759Z,24.86
2018-06-08T17:07:31.740Z,25.03
2018-06-08T17:08:31.709Z,24.95
2018-06-08T17:10:24.727Z,24.92
2018-06-08T17:11:24.665Z,24.81
2018-06-08T17:13:17.933Z,24.74
2018-06-08T17:14:17.770Z,24.88
2018-06-08T17:16:10.686Z,24.86
2018-06-08T17:17:10.575Z,24.80
2018-06-08T17:19:03.395Z,24.98
2018-06-08T17:20:03.362Z,25.03
2018-06-08T17:21:56.377Z,25.10
2018-06-08T17:22:56.312Z,25.13
2018-06-08T17:24:49.432Z,25.18
2018-06-08T17:25:49.401Z,25.26
2018-06-08T17:27:42.390Z,25.29
2018-06-08T17:28:42.423Z,25.36
2018-06-08T17:30:35.606Z,25.46
2018-06-08T17:31:35.489Z,25.38
2018-06-08T17:33:28.476Z,25.50
2018-06-08T17:34:28.441Z,25.51
2018-06-08T17:36:22.368Z,25.48
2018-06-08T17:37:21.375Z,25.51
2018-06-08T17:39:14.262Z,25.36
2018-06-08T17:40:14.227Z,25.41
2018-06-08T17:42:07.241Z,25.18
2018-06-08T17:43:07.188Z,25.29
2018-06-08T17:45:00.147Z,25.18
2018-06-08T17:46:00.147Z,25.18
2018-06-08T17:47:52.987Z,25.14
2018-06-08T17:48:52.926Z,25.10
2018-06-08T17:50:45.810Z,24.86
2018-06-08T17:51:45.764Z,24.74
2018-06-08T17:53:38.807Z,24.58
2018-06-08T17:54:38.746Z,24.65
2018-06-08T17:56:31.743Z,24.76
2018-06-08T17:57:31.713Z,24.80
2018-06-08T17:59:24.837Z,24.81
2018-06-08T18:00:24.797Z,24.85
2018-06-08T18:02:17.775Z,24.76
2018-06-08T18:03:17.743Z,24.55
2018-06-08T18:05:10.801Z,24.68
2018-06-08T18:06:10.811Z,24.55
2018-06-08T18:08:03.692Z,24.57
2018-06-08T18:09:03.557Z,24.53
2018-06-08T18:10:56.678Z,24.43
2018-06-08T18:11:56.680Z,24.39
2018-06-08T18:13:49.820Z,24.30
2018-06-08T18:14:49.769Z,24.24
2018-06-08T18:16:42.583Z,24.20
2018-06-08T18:17:43.132Z,24.32
2018-06-08T18:19:35.542Z,24.29
2018-06-08T18:20:35.607Z,24.18
2018-06-08T18:22:28.759Z,24.18
2018-06-08T18:23:28.777Z,24.23
2018-06-08T18:25:21.723Z,24.26
2018-06-08T18:26:21.675Z,24.17
2018-06-08T18:28:14.980Z,24.20
2018-06-08T18:29:14.936Z,24.23
2018-06-08T18:31:07.783Z,24.21
2018-06-08T18:32:07.738Z,24.18
2018-06-08T18:34:00.738Z,24.24